Capt Caden — WDC9862 — position and weather

sailwx.info

Track history (hours):
 
Tides and Currents Weather Stations Pressure Air Temp Water Temp Dewpoint Dewpoint Depression Visibility Wind Speed Wind Dir Waves Ship Positions

Capt Caden

Owner: MYKLEBUST & MYKLEBUST INC, TOMS RIVER, NJ. More information available from US FCC via Universal Licensing System and Coast Guard Vessel Documentation Center.

Last reported at 2017-Oct-22 10:37 UTC. Time now 2017-Nov-19 10:18 UTC.
Position N 40°06' W 074°02'.
Warning: this ship's position is 27 days out of date.

Length 21 m.

Type: Fishing. MMSI: 367107650.

Date/timePositionNaut miles runAvg speedWind from/ knotsBaromVisibWave heightAir tempDewpointWater temp
2017-Oct-22 10:37N 40°06' W 074°02'0 4.1
2017-Oct-22 10:30N 40°06' W 074°02'4 8.0
2017-Oct-22 10:00N 40°07' W 073°57'4 8.0
2017-Oct-22 09:30N 40°08' W 073°51'4 8.1
2017-Oct-22 09:00N 40°09' W 073°46'4 8.1
2017-Oct-22 08:30N 40°09' W 073°41'4 8.1
2017-Oct-22 07:59N 40°10' W 073°36'4 8.0
2017-Oct-22 07:28N 40°11' W 073°30'4 7.9
2017-Oct-22 06:58N 40°11' W 073°25'9 7.9
2017-Oct-22 05:52N 40°13' W 073°14'3 8.0
2017-Oct-22 05:30N 40°14' W 073°10'7 7.9
2017-Oct-22 04:39N 40°15' W 073°02'1 7.9
2017-Oct-22 04:29N 40°15' W 073°00'4 7.7
2017-Oct-22 03:59N 40°16' W 072°55'4 7.8
2017-Oct-22 03:29N 40°17' W 072°50'1 1.7
2017-Oct-22 02:53N 40°16' W 072°49'  
Track history (hours):
 
Tides and Currents Weather Stations Pressure Air Temp Water Temp Dewpoint Dewpoint Depression Visibility Wind Speed Wind Dir Waves Ship Positions

Capt Caden

Owner: MYKLEBUST & MYKLEBUST INC, TOMS RIVER, NJ. More information available from US FCC via Universal Licensing System and Coast Guard Vessel Documentation Center.

Last reported at 2017-Oct-22 10:37 UTC. Time now 2017-Nov-19 10:18 UTC.
Position N 40°06' W 074°02'.
Warning: this ship's position is 27 days out of date.

Length 21 m.

Type: Fishing. MMSI: 367107650.

Date/timePositionNaut miles runAvg speedWind from/ knotsBaromVisibWave heightAir tempDewpointWater temp
2017-Oct-22 10:37N 40°06' W 074°02'0 4.1
2017-Oct-22 10:30N 40°06' W 074°02'4 8.0
2017-Oct-22 10:00N 40°07' W 073°57'4 8.0
2017-Oct-22 09:30N 40°08' W 073°51'4 8.1
2017-Oct-22 09:00N 40°09' W 073°46'4 8.1
2017-Oct-22 08:30N 40°09' W 073°41'4 8.1
2017-Oct-22 07:59N 40°10' W 073°36'4 8.0
2017-Oct-22 07:28N 40°11' W 073°30'4 7.9
2017-Oct-22 06:58N 40°11' W 073°25'9 7.9
2017-Oct-22 05:52N 40°13' W 073°14'3 8.0
2017-Oct-22 05:30N 40°14' W 073°10'7 7.9
2017-Oct-22 04:39N 40°15' W 073°02'1 7.9
2017-Oct-22 04:29N 40°15' W 073°00'4 7.7
2017-Oct-22 03:59N 40°16' W 072°55'4 7.8
2017-Oct-22 03:29N 40°17' W 072°50'1 1.7
2017-Oct-22 02:53N 40°16' W 072°49'  

Dump ship's entire track history